createdAt,value
2018-08-19T00:00:28.606Z,64.42
2018-08-19T00:03:02.881Z,64.40
2018-08-19T00:05:31.536Z,64.31
2018-08-19T00:08:00.541Z,64.56
2018-08-19T00:10:41.244Z,64.29
2018-08-19T00:13:12.817Z,64.30
2018-08-19T00:15:42.037Z,64.16
2018-08-19T00:18:12.514Z,64.35
2018-08-19T00:20:41.546Z,64.62
2018-08-19T00:23:11.142Z,64.57
2018-08-19T00:25:41.709Z,64.26
2018-08-19T00:28:11.716Z,64.22
2018-08-19T00:30:41.426Z,64.43
2018-08-19T00:33:15.716Z,64.56
2018-08-19T00:35:44.672Z,64.98
2018-08-19T00:38:14.753Z,65.17
2018-08-19T00:40:43.968Z,64.67
2018-08-19T00:43:26.128Z,65.68
2018-08-19T00:45:54.580Z,65.66
2018-08-19T00:48:23.157Z,65.64
2018-08-19T00:50:52.616Z,65.76
2018-08-19T00:53:21.250Z,65.82
2018-08-19T00:55:50.478Z,65.73
2018-08-19T00:58:21.583Z,65.66
2018-08-19T01:00:50.468Z,66.10
2018-08-19T01:03:19.054Z,66.14
2018-08-19T01:05:47.620Z,65.68
2018-08-19T01:08:16.178Z,66.21
2018-08-19T01:10:44.766Z,66.31
2018-08-19T01:16:05.797Z,65.98
2018-08-19T01:18:34.214Z,66.27
2018-08-19T01:21:09.718Z,66.29
2018-08-19T01:26:34.988Z,66.76
2018-08-19T01:29:03.998Z,66.74
2018-08-19T01:31:32.680Z,67.24
2018-08-19T01:34:14.979Z,67.31
2018-08-19T01:36:43.542Z,67.83
2018-08-19T01:39:13.582Z,67.44
2018-08-19T01:41:43.126Z,67.83
2018-08-19T01:47:04.364Z,67.79
2018-08-19T01:49:33.099Z,67.60
2018-08-19T01:52:11.089Z,67.70
2018-08-19T01:54:39.418Z,68.06
2018-08-19T01:57:07.830Z,67.48
2018-08-19T01:59:36.434Z,68.29
2018-08-19T02:02:06.486Z,68.46
2018-08-19T02:04:41.192Z,69.30
2018-08-19T02:07:09.843Z,69.94
2018-08-19T02:09:52.390Z,69.67
2018-08-19T02:12:21.465Z,69.36
2018-08-19T02:14:50.446Z,70.17
2018-08-19T02:17:19.351Z,71.17
2018-08-19T02:19:48.278Z,71.16
2018-08-19T02:22:22.600Z,70.74
2018-08-19T02:24:55.190Z,70.27
2018-08-19T02:27:24.331Z,70.31
2018-08-19T02:29:53.317Z,70.94
2018-08-19T02:32:22.056Z,70.82
2018-08-19T02:34:50.836Z,71.62
2018-08-19T02:37:19.598Z,71.60
2018-08-19T02:39:49.396Z,72.96
2018-08-19T02:42:31.847Z,72.87
2018-08-19T02:45:05.904Z,73.30
2018-08-19T02:47:36.300Z,73.29
2018-08-19T02:50:05.706Z,72.80
2018-08-19T02:52:37.143Z,73.18
2018-08-19T02:55:07.704Z,73.54
2018-08-19T02:57:39.257Z,73.43
2018-08-19T03:00:10.217Z,73.14
2018-08-19T03:02:42.849Z,72.31
2018-08-19T03:05:13.718Z,72.97
2018-08-19T03:07:43.013Z,72.36
2018-08-19T03:10:14.200Z,72.42
2018-08-19T03:12:52.513Z,72.41
2018-08-19T03:15:21.340Z,72.35
2018-08-19T03:17:50.504Z,72.53
2018-08-19T03:20:21.597Z,72.45
2018-08-19T03:31:28.293Z,71.61
2018-08-19T03:33:56.668Z,72.05
2018-08-19T03:36:25.781Z,70.86
2018-08-19T03:38:55.491Z,70.78
2018-08-19T03:41:24.275Z,69.93
2018-08-19T03:43:59.332Z,69.63
2018-08-19T03:46:28.916Z,69.20
2018-08-19T03:48:57.693Z,68.33
2018-08-19T03:51:26.358Z,67.93
2018-08-19T03:53:55.165Z,67.52
2018-08-19T03:56:27.366Z,67.99
2018-08-19T03:58:59.010Z,67.99
2018-08-19T04:01:40.510Z,67.98
2018-08-19T04:04:18.573Z,68.21
2018-08-19T04:06:47.736Z,68.26
2018-08-19T04:09:16.486Z,68.13
2018-08-19T04:11:50.804Z,67.44
2018-08-19T04:14:27.587Z,67.29
2018-08-19T04:16:58.626Z,67.58
2018-08-19T04:19:27.829Z,67.27
2018-08-19T04:22:00.742Z,67.19
2018-08-19T04:24:29.910Z,66.39
2018-08-19T04:26:59.070Z,66.06
2018-08-19T04:29:28.612Z,66.23
2018-08-19T04:32:00.110Z,65.44
2018-08-19T04:34:28.562Z,65.70
2018-08-19T04:36:57.604Z,64.98
2018-08-19T04:39:26.040Z,64.18
2018-08-19T04:41:54.475Z,63.93
2018-08-19T04:44:22.876Z,62.92
2018-08-19T04:46:51.490Z,62.59
2018-08-19T04:49:19.906Z,61.60
2018-08-19T04:51:48.295Z,61.46
2018-08-19T04:54:16.978Z,61.11
2018-08-19T04:56:45.705Z,60.86
2018-08-19T04:59:14.657Z,60.60
2018-08-19T05:01:43.213Z,60.56
2018-08-19T05:04:11.834Z,59.85
2018-08-19T05:06:40.624Z,60.17
2018-08-19T05:09:09.174Z,59.06
2018-08-19T05:11:38.110Z,58.44
2018-08-19T05:14:06.894Z,58.07
2018-08-19T05:16:35.675Z,58.96
2018-08-19T05:19:04.523Z,57.69
2018-08-19T05:21:33.284Z,57.71
2018-08-19T05:24:02.367Z,57.01
2018-08-19T05:26:30.883Z,56.39
2018-08-19T05:29:10.743Z,56.36
2018-08-19T05:31:47.071Z,56.07
2018-08-19T05:34:21.565Z,55.76
2018-08-19T05:36:50.348Z,56.25
2018-08-19T05:39:19.686Z,55.43
2018-08-19T05:42:01.379Z,55.16
2018-08-19T05:44:32.637Z,54.69
2018-08-19T05:47:06.529Z,55.27
2018-08-19T05:49:38.328Z,54.01
2018-08-19T05:52:24.139Z,53.51
2018-08-19T05:54:54.962Z,52.46
2018-08-19T05:57:23.494Z,52.64
2018-08-19T05:59:53.266Z,51.54
2018-08-19T06:02:35.719Z,51.75
2018-08-19T06:05:04.551Z,52.12
2018-08-19T06:07:33.070Z,51.48
2018-08-19T06:10:01.665Z,51.88
2018-08-19T06:12:30.847Z,50.96
2018-08-19T06:15:00.286Z,50.98
2018-08-19T06:17:29.177Z,50.48
2018-08-19T06:19:58.729Z,50.89
2018-08-19T06:22:33.849Z,49.16
2018-08-19T06:25:02.679Z,48.95
2018-08-19T06:27:36.413Z,49.21
2018-08-19T06:30:05.529Z,48.43
2018-08-19T06:32:34.173Z,48.27
2018-08-19T06:35:03.030Z,48.63
2018-08-19T06:37:31.515Z,48.28
2018-08-19T06:40:00.055Z,47.98
2018-08-19T06:42:28.585Z,48.87
2018-08-19T06:44:57.237Z,48.38
2018-08-19T06:47:25.721Z,48.48
2018-08-19T06:49:57.173Z,48.30
2018-08-19T06:52:30.728Z,48.36
2018-08-19T06:54:59.165Z,48.61
2018-08-19T06:57:28.999Z,48.24
2018-08-19T06:59:57.594Z,48.64
2018-08-19T07:02:26.176Z,48.72
2018-08-19T07:04:54.695Z,48.36
2018-08-19T07:07:23.231Z,48.97
2018-08-19T07:09:51.633Z,48.76
2018-08-19T07:12:22.776Z,48.68
2018-08-19T07:14:51.570Z,48.61
2018-08-19T07:17:20.492Z,49.43
2018-08-19T07:19:48.920Z,48.94
2018-08-19T07:22:19.946Z,47.97
2018-08-19T07:24:48.384Z,48.40
2018-08-19T07:27:16.792Z,48.00
2018-08-19T07:29:45.382Z,46.92
2018-08-19T07:32:14.098Z,46.98
2018-08-19T07:34:42.726Z,46.82
2018-08-19T07:37:11.358Z,47.10
2018-08-19T07:39:46.394Z,46.69
2018-08-19T07:42:15.152Z,45.99
2018-08-19T07:44:43.667Z,47.01
2018-08-19T07:47:12.379Z,45.46
2018-08-19T07:49:41.201Z,45.98
2018-08-19T07:52:09.721Z,46.29
2018-08-19T07:54:38.298Z,44.93
2018-08-19T07:57:13.213Z,45.10
2018-08-19T07:59:42.398Z,45.31
2018-08-19T08:02:11.541Z,45.23
2018-08-19T08:04:43.213Z,44.92
2018-08-19T08:07:12.666Z,44.89
2018-08-19T08:09:42.006Z,45.64
2018-08-19T08:12:11.757Z,45.51
2018-08-19T08:14:44.521Z,44.66
2018-08-19T08:17:13.063Z,44.40
2018-08-19T08:19:47.146Z,44.70
2018-08-19T08:22:16.032Z,45.13
2018-08-19T08:24:44.871Z,44.57
2018-08-19T08:27:13.560Z,44.19
2018-08-19T08:29:42.065Z,44.72
2018-08-19T08:32:10.596Z,44.47
2018-08-19T08:34:39.114Z,44.84
2018-08-19T08:37:08.233Z,44.58
2018-08-19T08:39:37.555Z,45.70
2018-08-19T08:42:06.492Z,45.75
2018-08-19T08:44:35.073Z,46.81
2018-08-19T08:47:06.851Z,46.68
2018-08-19T08:49:41.430Z,45.88
2018-08-19T08:52:25.184Z,45.04
2018-08-19T08:54:55.999Z,46.62
2018-08-19T08:57:25.164Z,45.53
2018-08-19T08:59:54.116Z,46.05
2018-08-19T09:02:27.966Z,45.82
2018-08-19T09:04:56.785Z,46.44
2018-08-19T09:07:27.139Z,46.32
2018-08-19T09:09:55.674Z,46.19
2018-08-19T09:12:44.891Z,47.00
2018-08-19T09:15:14.153Z,46.76
2018-08-19T09:17:43.043Z,46.45
2018-08-19T09:20:12.079Z,47.19
2018-08-19T09:22:40.742Z,47.47
2018-08-19T09:25:10.107Z,47.58
2018-08-19T09:27:40.255Z,46.68
2018-08-19T09:30:10.227Z,46.69
2018-08-19T09:33:00.140Z,47.21
2018-08-19T09:35:31.386Z,47.89
2018-08-19T09:38:05.205Z,47.02
2018-08-19T09:40:35.173Z,46.19
2018-08-19T09:43:04.209Z,46.00
2018-08-19T09:45:33.117Z,46.62
2018-08-19T09:48:02.643Z,45.56
2018-08-19T09:50:32.904Z,45.76
2018-08-19T09:53:03.771Z,46.91
2018-08-19T09:55:37.775Z,46.12
2018-08-19T09:58:10.349Z,46.75
2018-08-19T10:00:44.399Z,46.11
2018-08-19T10:03:18.341Z,46.18
2018-08-19T10:05:48.057Z,45.79
2018-08-19T10:08:17.083Z,45.46
2018-08-19T10:10:45.871Z,45.93
2018-08-19T10:13:19.501Z,45.37
2018-08-19T10:15:48.952Z,44.52
2018-08-19T10:18:19.914Z,44.95
2018-08-19T10:21:10.790Z,44.75
2018-08-19T10:23:39.477Z,44.25
2018-08-19T10:26:08.627Z,44.01
2018-08-19T10:28:37.423Z,43.57
2018-08-19T10:31:16.050Z,43.35
2018-08-19T10:33:54.147Z,42.99
2018-08-19T10:36:23.071Z,42.83
2018-08-19T10:38:54.119Z,43.49
2018-08-19T10:41:23.520Z,42.46
2018-08-19T10:43:52.928Z,42.47
2018-08-19T10:46:21.522Z,42.45
2018-08-19T10:48:50.017Z,41.92
2018-08-19T10:51:18.770Z,40.66
2018-08-19T10:53:47.637Z,39.59
2018-08-19T10:56:16.444Z,38.65
2018-08-19T10:58:52.016Z,37.88
2018-08-19T11:01:21.348Z,37.81
2018-08-19T11:03:50.085Z,37.37
2018-08-19T11:06:18.584Z,37.83
2018-08-19T11:08:52.159Z,37.70
2018-08-19T11:11:20.808Z,37.54
2018-08-19T11:13:49.304Z,37.20
2018-08-19T11:16:18.159Z,37.60
2018-08-19T11:18:49.572Z,36.61
2018-08-19T11:21:26.295Z,36.50
2018-08-19T11:23:55.359Z,37.02
2018-08-19T11:26:24.065Z,35.24
2018-08-19T11:28:55.823Z,35.24
2018-08-19T11:31:30.616Z,34.58
2018-08-19T11:34:01.215Z,33.50
2018-08-19T11:36:36.028Z,33.79
2018-08-19T11:39:08.091Z,32.32
2018-08-19T11:41:36.659Z,31.48
2018-08-19T11:44:08.381Z,30.28
2018-08-19T11:46:37.019Z,30.88
2018-08-19T11:49:24.133Z,31.32
2018-08-19T11:51:55.709Z,30.86
2018-08-19T11:54:25.061Z,30.45
2018-08-19T11:57:02.511Z,31.23
2018-08-19T11:59:44.520Z,29.43
2018-08-19T12:02:15.871Z,29.84
2018-08-19T12:04:44.823Z,30.93
2018-08-19T12:07:13.465Z,30.40
2018-08-19T12:09:44.611Z,29.52
2018-08-19T12:12:13.027Z,28.26
2018-08-19T12:14:41.603Z,27.89
2018-08-19T12:17:11.276Z,28.08
2018-08-19T12:19:41.047Z,27.32
2018-08-19T12:22:09.771Z,26.32
2018-08-19T12:24:47.094Z,26.00
2018-08-19T12:27:17.122Z,26.00
2018-08-19T12:29:46.365Z,26.33
2018-08-19T12:32:18.809Z,27.13
2018-08-19T12:34:51.736Z,26.97
2018-08-19T12:37:21.394Z,26.38
2018-08-19T12:39:50.260Z,26.83
2018-08-19T12:42:18.902Z,26.82
2018-08-19T12:44:49.578Z,26.17
2018-08-19T12:47:20.376Z,26.74
2018-08-19T12:49:56.640Z,27.70
2018-08-19T12:52:27.467Z,25.77
2018-08-19T12:54:58.005Z,26.53
2018-08-19T12:57:26.723Z,26.62
2018-08-19T13:00:02.392Z,24.30
2018-08-19T13:02:43.107Z,25.92
2018-08-19T13:05:11.901Z,26.18
2018-08-19T13:07:40.525Z,25.53
2018-08-19T13:10:09.323Z,24.88
2018-08-19T13:12:58.373Z,24.12
2018-08-19T13:15:29.206Z,24.98
2018-08-19T13:17:57.647Z,25.03
2018-08-19T13:20:26.254Z,24.70
2018-08-19T13:23:03.993Z,25.54
2018-08-19T13:25:32.720Z,25.80
2018-08-19T13:28:01.231Z,25.26
2018-08-19T13:30:29.695Z,25.51
2018-08-19T13:32:58.257Z,25.36
2018-08-19T13:35:26.695Z,25.41
2018-08-19T13:37:55.147Z,25.42
2018-08-19T13:40:23.639Z,25.17
2018-08-19T13:42:52.187Z,25.53
2018-08-19T13:45:21.803Z,24.90
2018-08-19T13:47:52.446Z,24.27
2018-08-19T13:50:20.935Z,23.69
2018-08-19T13:52:49.554Z,23.50
2018-08-19T13:55:19.370Z,23.31
2018-08-19T13:57:47.895Z,22.73
2018-08-19T14:00:17.807Z,21.95
2018-08-19T14:02:47.136Z,21.92
2018-08-19T14:05:15.587Z,22.05
2018-08-19T14:07:44.131Z,21.43
2018-08-19T14:10:13.609Z,21.58
2018-08-19T14:12:42.071Z,21.32
2018-08-19T14:15:10.599Z,21.39
2018-08-19T14:17:39.037Z,20.78
2018-08-19T14:20:08.810Z,21.72
2018-08-19T14:22:37.302Z,20.96
2018-08-19T14:25:06.932Z,21.49
2018-08-19T14:27:35.379Z,20.88
2018-08-19T14:30:03.974Z,21.13
2018-08-19T14:32:34.731Z,21.51
2018-08-19T14:35:04.243Z,21.40
2018-08-19T14:37:33.039Z,21.78
2018-08-19T14:40:02.045Z,21.44
2018-08-19T14:42:30.496Z,21.42
2018-08-19T14:44:59.691Z,21.67
2018-08-19T14:47:28.483Z,22.02
2018-08-19T14:49:58.001Z,21.56
2018-08-19T14:52:27.086Z,22.44
2018-08-19T14:54:55.547Z,22.51
2018-08-19T14:57:24.142Z,23.37
2018-08-19T14:59:52.734Z,24.29
2018-08-19T15:02:21.195Z,23.63
2018-08-19T15:04:49.663Z,24.57
2018-08-19T15:07:18.217Z,24.45
2018-08-19T15:09:49.880Z,25.02
2018-08-19T15:12:21.404Z,25.81
2018-08-19T15:14:50.385Z,25.32
2018-08-19T15:17:18.971Z,25.62
2018-08-19T15:19:49.826Z,26.44
2018-08-19T15:22:18.267Z,26.29
2018-08-19T15:24:46.765Z,26.46
2018-08-19T15:27:15.444Z,26.32
2018-08-19T15:29:44.574Z,26.54
2018-08-19T15:32:13.258Z,26.44
2018-08-19T15:34:41.610Z,26.99
2018-08-19T15:37:10.179Z,26.47
2018-08-19T15:39:38.661Z,26.77
2018-08-19T15:42:07.273Z,26.50
2018-08-19T15:44:35.830Z,26.79
2018-08-19T15:47:04.325Z,26.59
2018-08-19T15:49:32.771Z,26.82
2018-08-19T15:52:01.377Z,27.10
2018-08-19T15:54:30.055Z,27.51
2018-08-19T15:57:01.909Z,27.45
2018-08-19T15:59:36.729Z,26.81
2018-08-19T16:02:05.420Z,27.02
2018-08-19T16:04:34.005Z,27.20
2018-08-19T16:07:02.803Z,27.75
2018-08-19T16:09:31.752Z,27.39
2018-08-19T16:12:00.265Z,28.15
2018-08-19T16:14:29.971Z,27.63
2018-08-19T16:16:59.489Z,27.49
2018-08-19T16:19:27.974Z,26.76
2018-08-19T16:21:57.484Z,27.51
2018-08-19T16:24:26.422Z,26.90
2018-08-19T16:26:54.863Z,27.35
2018-08-19T16:29:23.431Z,27.83
2018-08-19T16:31:52.242Z,27.77
2018-08-19T16:34:20.690Z,27.10
2018-08-19T16:36:49.214Z,27.59
2018-08-19T16:39:18.331Z,27.93
2018-08-19T16:41:46.813Z,27.48
2018-08-19T16:44:15.523Z,27.83
2018-08-19T16:46:43.964Z,26.73
2018-08-19T16:49:12.544Z,27.15
2018-08-19T16:51:41.103Z,27.46
2018-08-19T16:54:09.650Z,27.67
2018-08-19T16:56:38.397Z,28.29
2018-08-19T16:59:07.074Z,28.71
2018-08-19T17:01:35.685Z,29.80
2018-08-19T17:04:04.637Z,29.48
2018-08-19T17:06:33.101Z,30.91
2018-08-19T17:09:02.721Z,31.55
2018-08-19T17:11:31.146Z,29.85
2018-08-19T17:14:04.766Z,30.39
2018-08-19T17:16:33.205Z,31.05
2018-08-19T17:19:01.634Z,31.33
2018-08-19T17:21:30.076Z,30.79
2018-08-19T17:24:03.710Z,30.89
2018-08-19T17:26:32.227Z,31.14
2018-08-19T17:29:06.241Z,31.79
2018-08-19T17:31:34.736Z,31.09
2018-08-19T17:34:07.500Z,31.40
2018-08-19T17:36:35.906Z,31.07
2018-08-19T17:39:05.447Z,31.88
2018-08-19T17:41:33.849Z,31.86
2018-08-19T17:44:02.733Z,30.76
2018-08-19T17:46:31.155Z,31.54
2018-08-19T17:49:00.035Z,32.50
2018-08-19T17:51:33.510Z,31.98
2018-08-19T17:54:02.065Z,31.90
2018-08-19T17:56:30.501Z,32.29
2018-08-19T17:58:59.073Z,31.96
2018-08-19T18:01:27.654Z,32.12
2018-08-19T18:03:56.238Z,32.27
2018-08-19T18:06:24.683Z,32.19
2018-08-19T18:08:53.848Z,32.23
2018-08-19T18:11:22.731Z,32.38
2018-08-19T18:13:51.201Z,32.90
2018-08-19T18:16:19.843Z,32.72
2018-08-19T18:18:48.748Z,32.58
2018-08-19T18:21:17.357Z,33.16
2018-08-19T18:23:48.468Z,32.48
2018-08-19T18:26:16.955Z,32.39
2018-08-19T18:28:46.924Z,32.73
2018-08-19T18:31:20.843Z,32.43
2018-08-19T18:33:57.971Z,32.68
2018-08-19T18:36:29.303Z,32.61
2018-08-19T18:38:58.392Z,32.86
2018-08-19T18:41:40.591Z,32.02
2018-08-19T18:44:19.415Z,33.24
2018-08-19T18:46:48.115Z,32.81
2018-08-19T18:49:16.791Z,33.46
2018-08-19T18:51:48.197Z,33.47
2018-08-19T18:54:24.979Z,33.89
2018-08-19T18:56:53.799Z,33.42
2018-08-19T18:59:22.420Z,33.90
2018-08-19T19:01:50.873Z,35.07
2018-08-19T19:04:19.357Z,35.27
2018-08-19T19:06:48.343Z,35.61
2018-08-19T19:09:17.021Z,35.27
2018-08-19T19:11:45.535Z,35.47
2018-08-19T19:14:19.738Z,35.82
2018-08-19T19:16:51.487Z,36.54
2018-08-19T19:19:20.433Z,35.89
2018-08-19T19:21:54.095Z,37.24
2018-08-19T19:24:27.795Z,37.54
2018-08-19T19:26:56.465Z,36.91
2018-08-19T19:29:27.798Z,36.86
2018-08-19T19:31:57.606Z,37.55
2018-08-19T19:34:28.268Z,37.27
2018-08-19T19:36:56.778Z,37.83
2018-08-19T19:39:25.375Z,37.90
2018-08-19T19:42:02.940Z,37.59
2018-08-19T19:44:36.637Z,38.11
2018-08-19T19:47:06.521Z,38.63
2018-08-19T19:49:43.216Z,38.13
2018-08-19T19:52:12.102Z,39.11
2018-08-19T19:54:45.682Z,38.21
2018-08-19T19:57:14.483Z,38.30
2018-08-19T19:59:43.134Z,39.09
2018-08-19T20:02:44.075Z,38.57
2018-08-19T20:05:17.933Z,39.08
2018-08-19T20:07:46.418Z,39.76
2018-08-19T20:10:32.339Z,39.55
2018-08-19T20:13:01.142Z,39.75
2018-08-19T20:15:30.583Z,39.34
2018-08-19T20:17:59.078Z,40.26
2018-08-19T20:20:27.926Z,39.82
2018-08-19T20:23:08.927Z,39.83
2018-08-19T20:25:37.298Z,40.27
2018-08-19T20:28:09.127Z,39.93
2018-08-19T20:30:39.389Z,39.88
2018-08-19T20:33:30.247Z,41.08
2018-08-19T20:35:59.308Z,40.15
2018-08-19T20:38:27.765Z,40.29
2018-08-19T20:40:56.285Z,40.43
2018-08-19T20:43:25.460Z,40.40
2018-08-19T20:45:53.907Z,41.29
2018-08-19T20:48:22.965Z,41.06
2018-08-19T20:50:51.651Z,41.02
2018-08-19T20:53:20.159Z,41.53
2018-08-19T20:55:48.877Z,41.33
2018-08-19T20:58:17.306Z,41.54
2018-08-19T21:00:46.088Z,41.51
2018-08-19T21:03:33.374Z,42.09
2018-08-19T21:06:01.746Z,41.67
2018-08-19T21:08:30.199Z,41.66
2018-08-19T21:10:58.702Z,42.33
2018-08-19T21:13:27.090Z,41.54
2018-08-19T21:15:55.653Z,42.10
2018-08-19T21:18:24.185Z,41.96
2018-08-19T21:20:54.208Z,42.29
2018-08-19T21:23:22.789Z,42.94
2018-08-19T21:25:56.511Z,42.45
2018-08-19T21:28:24.891Z,42.84
2018-08-19T21:30:53.296Z,43.48
2018-08-19T21:33:21.666Z,43.07
2018-08-19T21:35:50.817Z,43.67
2018-08-19T21:38:19.361Z,43.79
2018-08-19T21:40:47.867Z,43.42
2018-08-19T21:43:16.289Z,42.84
2018-08-19T21:45:44.732Z,42.24
2018-08-19T21:48:16.805Z,42.66
2018-08-19T21:50:45.186Z,42.40
2018-08-19T21:53:16.989Z,42.46
2018-08-19T21:55:46.752Z,42.02
2018-08-19T21:58:15.314Z,43.34
2018-08-19T22:00:54.394Z,42.03
2018-08-19T22:03:28.154Z,41.82
2018-08-19T22:05:56.728Z,42.77
2018-08-19T22:08:26.360Z,43.04
2018-08-19T22:10:54.846Z,42.80
2018-08-19T22:13:23.378Z,42.54
2018-08-19T22:15:51.805Z,42.64
2018-08-19T22:18:21.523Z,42.43
2018-08-19T22:21:05.328Z,41.94
2018-08-19T22:23:39.493Z,41.80
2018-08-19T22:26:08.376Z,42.35
2018-08-19T22:28:36.799Z,42.37
2018-08-19T22:31:17.368Z,41.90
2018-08-19T22:33:49.910Z,41.85
2018-08-19T22:36:19.000Z,42.27
2018-08-19T22:38:47.737Z,41.73
2018-08-19T22:41:19.693Z,41.59
2018-08-19T22:43:48.467Z,42.29
2018-08-19T22:46:17.218Z,41.78
2018-08-19T22:48:45.588Z,42.07
2018-08-19T22:51:15.032Z,41.11
2018-08-19T22:53:43.476Z,41.08
2018-08-19T22:56:11.883Z,41.49
2018-08-19T22:58:40.468Z,41.28
2018-08-19T23:01:09.077Z,41.07
2018-08-19T23:03:38.037Z,40.45
2018-08-19T23:06:06.522Z,41.01
2018-08-19T23:08:34.891Z,41.60
2018-08-19T23:11:04.205Z,42.35
2018-08-19T23:13:43.947Z,41.87
2018-08-19T23:16:13.042Z,41.67
2018-08-19T23:18:42.263Z,41.95
2018-08-19T23:21:10.950Z,42.30
2018-08-19T23:23:39.615Z,42.52
2018-08-19T23:26:08.094Z,42.51
2018-08-19T23:28:36.530Z,41.76
2018-08-19T23:31:05.068Z,41.83
2018-08-19T23:33:33.613Z,42.24
2018-08-19T23:36:02.025Z,42.08
2018-08-19T23:38:30.562Z,41.27
2018-08-19T23:41:00.030Z,41.29
2018-08-19T23:43:28.805Z,40.52
2018-08-19T23:45:57.511Z,40.29
2018-08-19T23:48:25.925Z,40.17
2018-08-19T23:50:54.616Z,40.18
2018-08-19T23:53:23.040Z,40.84
2018-08-19T23:55:51.466Z,40.79
2018-08-19T23:58:19.908Z,40.32
